createdAt,value
2017-02-16T00:00:55.359Z,49.29
2017-02-16T00:02:04.378Z,49.48
2017-02-16T00:03:13.408Z,49.29
2017-02-16T00:04:22.450Z,49.38
2017-02-16T00:05:31.461Z,49.38
2017-02-16T00:06:40.481Z,49.48
2017-02-16T00:07:49.523Z,49.19
2017-02-16T00:08:58.546Z,49.19
2017-02-16T00:10:07.575Z,49.38
2017-02-16T00:11:16.601Z,49.66
2017-02-16T00:12:25.626Z,49.76
2017-02-16T00:13:34.696Z,49.66
2017-02-16T00:14:43.735Z,49.38
2017-02-16T00:15:52.779Z,49.48
2017-02-16T00:17:01.821Z,49.48
2017-02-16T00:18:10.854Z,49.57
2017-02-16T00:19:19.892Z,49.38
2017-02-16T00:20:28.935Z,49.45
2017-02-16T00:21:37.962Z,49.35
2017-02-16T00:22:47.387Z,49.48
2017-02-16T00:23:56.826Z,49.26
2017-02-16T00:25:06.277Z,49.74
2017-02-16T00:26:15.313Z,49.26
2017-02-16T00:27:24.344Z,49.26
2017-02-16T00:28:33.365Z,49.16
2017-02-16T00:29:42.791Z,49.26
2017-02-16T00:30:51.810Z,49.55
2017-02-16T00:32:00.835Z,49.45
2017-02-16T00:33:09.860Z,49.55
2017-02-16T00:34:18.887Z,49.07
2017-02-16T00:35:27.918Z,49.45
2017-02-16T00:36:36.938Z,49.74
2017-02-16T00:37:45.972Z,49.64
2017-02-16T00:38:54.991Z,49.35
2017-02-16T00:40:04.014Z,49.35
2017-02-16T00:41:13.028Z,49.74
2017-02-16T00:42:22.070Z,49.45
2017-02-16T00:43:31.076Z,49.64
2017-02-16T00:44:40.103Z,49.84
2017-02-16T00:45:49.116Z,49.55
2017-02-16T00:46:58.168Z,49.64
2017-02-16T00:48:07.200Z,49.74
2017-02-16T00:49:16.638Z,49.74
2017-02-16T00:50:25.671Z,49.74
2017-02-16T00:51:34.702Z,49.62
2017-02-16T00:52:44.541Z,49.74
2017-02-16T00:53:53.585Z,49.8
2017-02-16T00:55:02.612Z,49.8
2017-02-16T00:56:12.058Z,49.8
2017-02-16T00:57:21.096Z,49.9
2017-02-16T00:58:30.145Z,49.62
2017-02-16T00:59:39.171Z,49.64
2017-02-16T01:00:48.181Z,49.62
2017-02-16T01:01:57.198Z,49.8
2017-02-16T01:03:06.633Z,49.8
2017-02-16T01:04:15.650Z,49.8
2017-02-16T01:05:24.683Z,49.8
2017-02-16T01:06:33.701Z,49.62
2017-02-16T01:07:42.760Z,49.9
2017-02-16T01:08:51.798Z,49.71
2017-02-16T01:10:00.819Z,49.62
2017-02-16T01:11:10.304Z,49.62
2017-02-16T01:12:19.356Z,49.71
2017-02-16T01:13:28.375Z,50
2017-02-16T01:14:37.417Z,49.9
2017-02-16T01:15:46.482Z,50.19
2017-02-16T01:16:55.931Z,49.9
2017-02-16T01:18:05.775Z,50
2017-02-16T01:19:14.800Z,50
2017-02-16T01:20:23.821Z,50
2017-02-16T01:21:32.854Z,50
2017-02-16T01:22:41.902Z,49.9
2017-02-16T01:23:51.346Z,50.09
2017-02-16T01:25:00.393Z,50
2017-02-16T01:26:09.433Z,49.9
2017-02-16T01:27:18.457Z,49.9
2017-02-16T01:28:27.498Z,50.09
2017-02-16T01:29:36.962Z,49.9
2017-02-16T01:30:45.969Z,50
2017-02-16T01:31:55.398Z,49.9
2017-02-16T01:33:04.856Z,50
2017-02-16T01:34:13.868Z,49.9
2017-02-16T01:35:22.904Z,49.8
2017-02-16T01:36:31.930Z,50
2017-02-16T01:37:41.004Z,50.09
2017-02-16T01:38:50.431Z,50.09
2017-02-16T01:39:59.456Z,50.09
2017-02-16T01:41:08.924Z,50.09
2017-02-16T01:42:17.953Z,50.09
2017-02-16T01:43:26.975Z,49.98
2017-02-16T01:44:36.015Z,50.35
2017-02-16T01:45:45.038Z,50.74
2017-02-16T01:46:54.079Z,50.26
2017-02-16T01:48:03.093Z,50.35
2017-02-16T01:49:12.128Z,50.26
2017-02-16T01:50:21.148Z,50.35
2017-02-16T01:51:30.582Z,50.45
2017-02-16T01:52:39.605Z,50.35
2017-02-16T01:53:48.630Z,50.16
2017-02-16T01:54:58.089Z,50.45
2017-02-16T01:56:07.119Z,50.35
2017-02-16T01:57:16.173Z,50.26
2017-02-16T01:58:25.196Z,49.88
2017-02-16T01:59:34.238Z,50.16
2017-02-16T02:00:43.254Z,50.16
2017-02-16T02:01:52.262Z,50.26
2017-02-16T02:03:01.264Z,50.45
2017-02-16T02:04:10.290Z,50.55
2017-02-16T02:05:19.315Z,50.45
2017-02-16T02:06:28.345Z,50.35
2017-02-16T02:07:37.391Z,50.45
2017-02-16T02:08:46.406Z,50.35
2017-02-16T02:09:55.419Z,50.26
2017-02-16T02:11:04.442Z,50.64
2017-02-16T02:12:13.458Z,50.55
2017-02-16T02:13:22.475Z,50.45
2017-02-16T02:14:31.506Z,50.55
2017-02-16T02:15:40.523Z,50.35
2017-02-16T02:16:49.548Z,50.26
2017-02-16T02:17:58.573Z,50.33
2017-02-16T02:19:07.585Z,50.43
2017-02-16T02:20:16.626Z,50.43
2017-02-16T02:21:25.662Z,50.24
2017-02-16T02:22:34.702Z,50.24
2017-02-16T02:23:44.138Z,50.24
2017-02-16T02:24:53.167Z,50.33
2017-02-16T02:26:02.193Z,50.33
2017-02-16T02:27:11.637Z,50.24
2017-02-16T02:28:20.653Z,50.43
2017-02-16T02:29:29.685Z,50.43
2017-02-16T02:30:38.720Z,50.52
2017-02-16T02:31:48.172Z,50.43
2017-02-16T02:32:57.609Z,50.52
2017-02-16T02:34:06.642Z,50.24
2017-02-16T02:35:15.654Z,50.24
2017-02-16T02:36:24.700Z,50.43
2017-02-16T02:37:33.728Z,50.43
2017-02-16T02:38:43.155Z,50.33
2017-02-16T02:39:52.182Z,50.33
2017-02-16T02:41:01.238Z,50.33
2017-02-16T02:42:10.254Z,50.52
2017-02-16T02:43:19.267Z,50.43
2017-02-16T02:44:28.308Z,50.52
2017-02-16T02:45:37.336Z,50.43
2017-02-16T02:46:46.348Z,50.71
2017-02-16T02:47:55.369Z,50.81
2017-02-16T02:49:04.386Z,50.81
2017-02-16T02:50:13.400Z,51.19
2017-02-16T02:51:22.428Z,51
2017-02-16T02:52:31.443Z,50.9
2017-02-16T02:53:40.464Z,51.09
2017-02-16T02:54:49.482Z,51.09
2017-02-16T02:55:58.503Z,50.81
2017-02-16T02:57:07.518Z,51.09
2017-02-16T02:58:16.552Z,50.9
2017-02-16T02:59:25.578Z,50.9
2017-02-16T03:00:35.020Z,51
2017-02-16T03:01:44.039Z,51.07
2017-02-16T03:02:53.058Z,50.9
2017-02-16T03:04:02.076Z,51
2017-02-16T03:05:11.109Z,51.26
2017-02-16T03:06:20.120Z,50.9
2017-02-16T03:07:29.142Z,51
2017-02-16T03:08:38.196Z,50.98
2017-02-16T03:09:47.235Z,50.78
2017-02-16T03:10:56.268Z,51.07
2017-02-16T03:12:05.306Z,50.88
2017-02-16T03:13:14.332Z,51
2017-02-16T03:14:23.752Z,50.9
2017-02-16T03:15:32.759Z,50.78
2017-02-16T03:16:41.779Z,51.29
2017-02-16T03:17:50.820Z,51.29
2017-02-16T03:19:00.293Z,51.29
2017-02-16T03:20:09.323Z,51.07
2017-02-16T03:21:18.349Z,51.19
2017-02-16T03:22:27.373Z,51.09
2017-02-16T03:23:36.375Z,51.07
2017-02-16T03:24:45.403Z,50.9
2017-02-16T03:25:54.413Z,51.26
2017-02-16T03:27:03.421Z,51.07
2017-02-16T03:28:12.469Z,50.98
2017-02-16T03:29:21.487Z,51.07
2017-02-16T03:30:30.499Z,51.26
2017-02-16T03:31:39.512Z,50.98
2017-02-16T03:32:48.556Z,51.26
2017-02-16T03:33:57.994Z,51.17
2017-02-16T03:35:07.015Z,51.07
2017-02-16T03:36:16.051Z,51.07
2017-02-16T03:37:25.062Z,51.26
2017-02-16T03:38:34.120Z,50.88
2017-02-16T03:39:43.135Z,50.88
2017-02-16T03:40:52.171Z,50.88
2017-02-16T03:42:01.185Z,51.17
2017-02-16T03:43:10.201Z,51.17
2017-02-16T03:44:19.210Z,51.07
2017-02-16T03:45:28.234Z,51.17
2017-02-16T03:46:37.314Z,50.98
2017-02-16T03:47:46.383Z,51.45
2017-02-16T03:48:55.397Z,51.45
2017-02-16T03:50:04.423Z,51.35
2017-02-16T03:51:13.432Z,51.17
2017-02-16T03:52:22.441Z,51.17
2017-02-16T03:53:31.466Z,51.54
2017-02-16T03:54:40.482Z,51.35
2017-02-16T03:55:49.920Z,51.45
2017-02-16T03:56:58.946Z,51.26
2017-02-16T03:58:07.988Z,51.26
2017-02-16T03:59:17.017Z,51.64
2017-02-16T04:00:26.029Z,51.83
2017-02-16T04:01:35.062Z,51.93
2017-02-16T04:02:44.094Z,51.93
2017-02-16T04:03:53.132Z,52.03
2017-02-16T04:05:02.159Z,52.03
2017-02-16T04:06:11.174Z,51.83
2017-02-16T04:07:20.182Z,51.35
2017-02-16T04:08:29.209Z,51.35
2017-02-16T04:09:38.239Z,52.03
2017-02-16T04:10:47.255Z,52.22
2017-02-16T04:11:56.271Z,52.22
2017-02-16T04:13:05.306Z,52.03
2017-02-16T04:14:14.352Z,52.12
2017-02-16T04:15:23.364Z,52.31
2017-02-16T04:16:32.380Z,52.12
2017-02-16T04:17:41.862Z,52.03
2017-02-16T04:18:50.879Z,51.93
2017-02-16T04:19:59.887Z,52.03
2017-02-16T04:21:08.936Z,52.22
2017-02-16T04:22:17.950Z,52.12
2017-02-16T04:23:26.973Z,52.22
2017-02-16T04:24:35.990Z,52.12
2017-02-16T04:25:45.039Z,52.12
2017-02-16T04:26:54.043Z,52.19
2017-02-16T04:28:03.077Z,52.03
2017-02-16T04:29:12.073Z,51.93
2017-02-16T04:30:21.093Z,52.03
2017-02-16T04:31:30.123Z,52.12
2017-02-16T04:32:39.150Z,52.22
2017-02-16T04:33:48.168Z,52.22
2017-02-16T04:34:57.611Z,52.59
2017-02-16T04:36:06.615Z,52.31
2017-02-16T04:37:15.644Z,52.5
2017-02-16T04:38:24.673Z,52.28
2017-02-16T04:39:33.697Z,52.59
2017-02-16T04:40:42.713Z,52.67
2017-02-16T04:41:51.735Z,52.19
2017-02-16T04:43:02.918Z,52.48
2017-02-16T04:44:11.946Z,52.59
2017-02-16T04:45:20.970Z,52.48
2017-02-16T04:46:29.998Z,52.5
2017-02-16T04:47:39.032Z,52.48
2017-02-16T04:48:48.086Z,53.14
2017-02-16T04:49:57.108Z,53.14
2017-02-16T04:51:06.128Z,53.14
2017-02-16T04:52:15.144Z,53.14
2017-02-16T04:53:24.560Z,52.76
2017-02-16T04:54:33.594Z,53.33
2017-02-16T04:55:42.623Z,53.33
2017-02-16T04:56:51.631Z,53.24
2017-02-16T04:58:00.648Z,53.24
2017-02-16T04:59:09.670Z,53.05
2017-02-16T05:00:18.692Z,53.33
2017-02-16T05:01:27.744Z,53.24
2017-02-16T05:02:37.199Z,53.43
2017-02-16T05:03:46.228Z,53.62
2017-02-16T05:04:55.239Z,53.14
2017-02-16T05:06:04.251Z,52.95
2017-02-16T05:07:13.269Z,53.14
2017-02-16T05:08:22.723Z,53.33
2017-02-16T05:09:31.775Z,53.24
2017-02-16T05:10:40.793Z,53.24
2017-02-16T05:11:49.817Z,53.53
2017-02-16T05:12:58.833Z,53.62
2017-02-16T05:14:07.852Z,53.33
2017-02-16T05:15:16.877Z,53.05
2017-02-16T05:16:26.346Z,53.33
2017-02-16T05:17:35.385Z,53.24
2017-02-16T05:18:44.396Z,53.33
2017-02-16T05:19:53.439Z,52.76
2017-02-16T05:21:02.450Z,52.57
2017-02-16T05:22:11.470Z,52.86
2017-02-16T05:23:20.507Z,53.24
2017-02-16T05:24:29.537Z,53.53
2017-02-16T05:25:38.567Z,53.43
2017-02-16T05:26:47.593Z,53.53
2017-02-16T05:27:56.641Z,53.62
2017-02-16T05:29:05.663Z,52.95
2017-02-16T05:30:14.761Z,53.24
2017-02-16T05:31:23.855Z,53.14
2017-02-16T05:32:32.916Z,53.14
2017-02-16T05:33:41.956Z,53.05
2017-02-16T05:34:50.974Z,52.76
2017-02-16T05:36:00.002Z,53.24
2017-02-16T05:37:09.028Z,53.24
2017-02-16T05:38:18.050Z,53.24
2017-02-16T05:39:27.094Z,53.05
2017-02-16T05:40:36.117Z,53.33
2017-02-16T05:41:45.552Z,52.95
2017-02-16T05:42:54.562Z,52.95
2017-02-16T05:44:03.604Z,53.24
2017-02-16T05:45:12.626Z,53.14
2017-02-16T05:46:21.632Z,53.24
2017-02-16T05:47:30.655Z,53.24
2017-02-16T05:48:39.675Z,53.53
2017-02-16T05:49:48.690Z,53.53
2017-02-16T05:50:57.709Z,53.62
2017-02-16T05:52:06.729Z,53.24
2017-02-16T05:53:15.763Z,53.33
2017-02-16T05:54:24.784Z,53.05
2017-02-16T05:55:34.214Z,53.24
2017-02-16T05:56:43.223Z,53.05
2017-02-16T05:57:52.253Z,53.53
2017-02-16T05:59:01.254Z,55.05
2017-02-16T06:00:10.275Z,55.62
2017-02-16T06:01:19.738Z,59.09
2017-02-16T06:02:28.774Z,60.84
2017-02-16T06:03:38.213Z,60.93
2017-02-16T06:04:47.240Z,62.59
2017-02-16T06:05:56.271Z,63.26
2017-02-16T06:07:05.315Z,64.78
2017-02-16T06:08:14.340Z,65.48
2017-02-16T06:09:23.360Z,65.68
2017-02-16T06:10:32.383Z,65.11
2017-02-16T06:11:41.421Z,65.11
2017-02-16T06:12:50.443Z,64.72
2017-02-16T06:13:59.458Z,65.77
2017-02-16T06:15:08.494Z,64.43
2017-02-16T06:16:17.512Z,63.19
2017-02-16T06:17:26.542Z,61.57
2017-02-16T06:18:35.551Z,59.94
2017-02-16T06:19:44.577Z,58.61
2017-02-16T06:20:53.605Z,59.15
2017-02-16T06:22:02.628Z,59.91
2017-02-16T06:23:11.663Z,60.99
2017-02-16T06:24:20.708Z,61.66
2017-02-16T06:25:29.743Z,61.38
2017-02-16T06:26:38.804Z,61.76
2017-02-16T06:27:47.812Z,62.71
2017-02-16T06:28:56.840Z,63
2017-02-16T06:30:06.277Z,63
2017-02-16T06:31:15.304Z,63.39
2017-02-16T06:32:24.313Z,62.84
2017-02-16T06:33:33.788Z,62.84
2017-02-16T06:34:42.788Z,63.51
2017-02-16T06:35:51.806Z,63.51
2017-02-16T06:37:00.815Z,63.99
2017-02-16T06:38:10.695Z,63.8
2017-02-16T06:39:19.747Z,64.09
2017-02-16T06:40:29.186Z,64.28
2017-02-16T06:41:38.224Z,64.75
2017-02-16T06:42:47.655Z,64.28
2017-02-16T06:43:56.683Z,64.47
2017-02-16T06:45:05.738Z,64.28
2017-02-16T06:46:14.761Z,64.75
2017-02-16T06:47:24.190Z,64.28
2017-02-16T06:48:33.231Z,64.47
2017-02-16T06:49:42.270Z,64.85
2017-02-16T06:50:51.309Z,64.75
2017-02-16T06:52:00.336Z,64.09
2017-02-16T06:53:09.356Z,64.66
2017-02-16T06:54:18.378Z,64.85
2017-02-16T06:55:27.420Z,65.42
2017-02-16T06:56:36.453Z,65.71
2017-02-16T06:57:45.461Z,65.81
2017-02-16T06:58:54.503Z,65.04
2017-02-16T07:00:03.953Z,66
2017-02-16T07:01:13.001Z,65.61
2017-02-16T07:02:22.049Z,65.52
2017-02-16T07:03:31.066Z,65.71
2017-02-16T07:04:40.107Z,65.9
2017-02-16T07:05:49.135Z,65.9
2017-02-16T07:06:58.173Z,66
2017-02-16T07:08:07.183Z,66.03
2017-02-16T07:09:16.226Z,66.03
2017-02-16T07:10:25.234Z,66.51
2017-02-16T07:11:34.255Z,66.67
2017-02-16T07:12:43.691Z,66.38
2017-02-16T07:13:52.719Z,66.38
2017-02-16T07:15:01.770Z,67.24
2017-02-16T07:16:10.813Z,66.67
2017-02-16T07:17:19.850Z,67.43
2017-02-16T07:18:28.886Z,67.63
2017-02-16T07:19:37.952Z,67.08
2017-02-16T07:20:46.977Z,67.08
2017-02-16T07:21:56.011Z,67.37
2017-02-16T07:23:05.049Z,67.27
2017-02-16T07:24:14.898Z,66.89
2017-02-16T07:25:23.940Z,66.8
2017-02-16T07:26:32.956Z,66.96
2017-02-16T07:27:41.988Z,67.08
2017-02-16T07:28:51.009Z,67.27
2017-02-16T07:30:00.030Z,67.56
2017-02-16T07:31:09.082Z,67.27
2017-02-16T07:32:18.102Z,67.18
2017-02-16T07:33:27.124Z,67.47
2017-02-16T07:34:36.151Z,67.56
2017-02-16T07:35:45.171Z,67.47
2017-02-16T07:36:54.190Z,67.94
2017-02-16T07:38:03.261Z,67.47
2017-02-16T07:39:12.282Z,67.66
2017-02-16T07:40:21.338Z,68.52
2017-02-16T07:41:30.356Z,67.66
2017-02-16T07:42:39.803Z,67.76
2017-02-16T07:43:48.837Z,68.04
2017-02-16T07:44:57.879Z,67.76
2017-02-16T07:46:06.904Z,66.99
2017-02-16T07:47:15.947Z,67.56
2017-02-16T07:48:24.973Z,68.33
2017-02-16T07:49:33.991Z,67.66
2017-02-16T07:50:43.070Z,67.76
2017-02-16T07:51:52.119Z,68.23
2017-02-16T07:53:01.148Z,67.56
2017-02-16T07:54:10.166Z,68.33
2017-02-16T07:55:19.187Z,69
2017-02-16T07:56:28.217Z,68.42
2017-02-16T07:57:37.237Z,68.23
2017-02-16T07:58:46.273Z,68.04
2017-02-16T07:59:55.307Z,68.23
2017-02-16T08:01:04.324Z,68.52
2017-02-16T08:02:13.367Z,68.04
2017-02-16T08:03:22.391Z,67.85
2017-02-16T08:04:31.411Z,68.23
2017-02-16T08:05:40.446Z,67.56
2017-02-16T08:06:49.485Z,68.13
2017-02-16T08:07:58.505Z,68.52
2017-02-16T08:09:07.525Z,68.52
2017-02-16T08:10:16.538Z,68.62
2017-02-16T08:11:25.557Z,67.94
2017-02-16T08:12:34.592Z,68.13
2017-02-16T08:13:43.613Z,68.23
2017-02-16T08:14:52.643Z,67.37
2017-02-16T08:16:01.660Z,66.99
2017-02-16T08:17:10.687Z,67.76
2017-02-16T08:18:20.127Z,67.76
2017-02-16T08:19:29.167Z,67.94
2017-02-16T08:20:38.620Z,68.23
2017-02-16T08:21:47.626Z,67.94
2017-02-16T08:22:56.666Z,68.23
2017-02-16T08:24:05.702Z,68.23
2017-02-16T08:25:14.733Z,67.47
2017-02-16T08:26:24.168Z,67.94
2017-02-16T08:27:33.236Z,68.42
2017-02-16T08:28:42.258Z,68.9
2017-02-16T08:29:51.275Z,68.33
2017-02-16T08:31:00.326Z,67.85
2017-02-16T08:32:09.387Z,67.66
2017-02-16T08:33:18.404Z,68.07
2017-02-16T08:34:27.425Z,67.5
2017-02-16T08:35:36.470Z,68.33
2017-02-16T08:36:45.521Z,68.07
2017-02-16T08:37:54.552Z,68.55
2017-02-16T08:39:03.643Z,68.36
2017-02-16T08:40:13.075Z,68.36
2017-02-16T08:41:22.092Z,68.94
2017-02-16T08:42:31.558Z,68.65
2017-02-16T08:43:41.000Z,68.94
2017-02-16T08:44:50.014Z,68.94
2017-02-16T08:45:59.062Z,68.36
2017-02-16T08:47:08.095Z,68.55
2017-02-16T08:48:17.524Z,69.03
2017-02-16T08:49:26.556Z,68.65
2017-02-16T08:50:35.612Z,68.46
2017-02-16T08:51:44.643Z,68.17
2017-02-16T08:52:53.676Z,67.98
2017-02-16T08:54:03.127Z,68.27
2017-02-16T08:55:12.131Z,68.46
2017-02-16T08:56:21.175Z,68.36
2017-02-16T08:57:30.201Z,68.07
2017-02-16T08:58:39.223Z,68.46
2017-02-16T08:59:48.249Z,68.36
2017-02-16T09:00:57.305Z,68.36
2017-02-16T09:02:06.328Z,68.36
2017-02-16T09:03:15.391Z,68.36
2017-02-16T09:04:24.431Z,68.46
2017-02-16T09:05:33.446Z,68.55
2017-02-16T09:06:42.473Z,68.46
2017-02-16T09:07:51.483Z,68.27
2017-02-16T09:09:00.502Z,68.55
2017-02-16T09:10:09.542Z,68.27
2017-02-16T09:11:18.574Z,68.07
2017-02-16T09:12:27.611Z,68.36
2017-02-16T09:13:36.617Z,68.46
2017-02-16T09:14:46.078Z,68.36
2017-02-16T09:15:55.545Z,68.07
2017-02-16T09:17:04.590Z,68.36
2017-02-16T09:18:13.653Z,68.27
2017-02-16T09:19:22.689Z,68.27
2017-02-16T09:20:31.719Z,68.07
2017-02-16T09:21:40.742Z,68.36
2017-02-16T09:22:49.752Z,68.27
2017-02-16T09:23:58.773Z,67.88
2017-02-16T09:25:07.802Z,68.74
2017-02-16T09:26:16.824Z,68.46
2017-02-16T09:27:25.871Z,68.65
2017-02-16T09:28:34.910Z,68.36
2017-02-16T09:29:43.933Z,68.55
2017-02-16T09:30:52.981Z,68.55
2017-02-16T09:32:02.012Z,68.46
2017-02-16T09:33:11.025Z,68.27
2017-02-16T09:34:20.031Z,68.46
2017-02-16T09:35:29.067Z,68.46
2017-02-16T09:36:38.106Z,68.46
2017-02-16T09:37:47.147Z,68.17
2017-02-16T09:38:56.185Z,68.84
2017-02-16T09:40:05.211Z,68.27
2017-02-16T09:41:14.233Z,68.07
2017-02-16T09:42:23.258Z,68.36
2017-02-16T09:43:32.305Z,68.55
2017-02-16T09:44:41.321Z,68.27
2017-02-16T09:45:50.365Z,68.27
2017-02-16T09:46:59.367Z,67.98
2017-02-16T09:48:08.405Z,68.36
2017-02-16T09:49:17.439Z,67.88
2017-02-16T09:50:26.474Z,67.88
2017-02-16T09:51:35.498Z,68.59
2017-02-16T09:52:44.547Z,68.17
2017-02-16T09:53:53.579Z,68.49
2017-02-16T09:55:02.601Z,68.07
2017-02-16T09:56:11.620Z,68.3
2017-02-16T09:57:20.662Z,68.21
2017-02-16T09:58:29.696Z,68.4
2017-02-16T09:59:38.731Z,68.4
2017-02-16T10:00:47.746Z,68.01
2017-02-16T10:01:56.772Z,68.4
2017-02-16T10:03:05.795Z,68.11
2017-02-16T10:04:14.835Z,68.3
2017-02-16T10:05:24.269Z,68.59
2017-02-16T10:06:33.292Z,68.21
2017-02-16T10:07:42.313Z,68.3
2017-02-16T10:08:51.330Z,67.91
2017-02-16T10:10:00.385Z,68.01
2017-02-16T10:11:09.418Z,68.3
2017-02-16T10:12:18.472Z,68.3
2017-02-16T10:13:27.500Z,67.91
2017-02-16T10:14:36.555Z,67.91
2017-02-16T10:15:45.998Z,68.49
2017-02-16T10:16:55.027Z,68.21
2017-02-16T10:18:04.058Z,68.49
2017-02-16T10:19:13.077Z,67.91
2017-02-16T10:20:22.105Z,67.82
2017-02-16T10:21:31.510Z,67.72
2017-02-16T10:23:11.985Z,67.54
2017-02-16T10:24:21.023Z,67.63
2017-02-16T10:25:30.069Z,67.72
2017-02-16T10:26:39.087Z,67.82
2017-02-16T10:27:48.521Z,67.63
2017-02-16T10:28:57.960Z,67.54
2017-02-16T10:30:06.988Z,67.54
2017-02-16T10:31:16.041Z,67.72
2017-02-16T10:32:25.056Z,68.01
2017-02-16T10:33:34.072Z,68.68
2017-02-16T10:34:43.113Z,68.3
2017-02-16T10:35:52.149Z,68.21
2017-02-16T10:37:01.209Z,68.11
2017-02-16T10:38:10.215Z,67.82
2017-02-16T10:39:19.226Z,68.01
2017-02-16T10:40:28.264Z,67.54
2017-02-16T10:41:37.293Z,67.82
2017-02-16T10:42:46.302Z,67.91
2017-02-16T10:43:55.755Z,67.54
2017-02-16T10:45:04.770Z,67.63
2017-02-16T10:46:13.835Z,67.63
2017-02-16T10:47:22.893Z,67.76
2017-02-16T10:48:31.919Z,67.47
2017-02-16T10:49:40.935Z,67.72
2017-02-16T10:50:49.945Z,67.47
2017-02-16T10:51:58.982Z,67.38
2017-02-16T10:53:08.002Z,67.66
2017-02-16T10:54:17.031Z,67.47
2017-02-16T10:55:26.053Z,67.18
2017-02-16T10:56:35.087Z,67.34
2017-02-16T10:57:44.100Z,67.34
2017-02-16T10:58:53.554Z,67.47
2017-02-16T11:00:02.575Z,67.47
2017-02-16T11:01:11.624Z,67.76
2017-02-16T11:02:20.648Z,67.18
2017-02-16T11:03:30.496Z,67.57
2017-02-16T11:04:39.509Z,67.57
2017-02-16T11:05:48.548Z,67.47
2017-02-16T11:06:57.585Z,67.57
2017-02-16T11:08:06.632Z,67.38
2017-02-16T11:09:15.681Z,67.28
2017-02-16T11:10:24.712Z,67.18
2017-02-16T11:11:33.742Z,67.66
2017-02-16T11:12:42.782Z,67.57
2017-02-16T11:13:51.807Z,67.76
2017-02-16T11:15:00.829Z,67.76
2017-02-16T11:16:09.860Z,67.66
2017-02-16T11:17:18.872Z,67.76
2017-02-16T11:18:27.922Z,68.05
2017-02-16T11:19:36.957Z,68.33
2017-02-16T11:20:45.985Z,68.43
2017-02-16T11:21:54.993Z,68.43
2017-02-16T11:23:04.036Z,67.85
2017-02-16T11:24:13.053Z,67.95
2017-02-16T11:25:22.494Z,68.52
2017-02-16T11:26:31.543Z,68.33
2017-02-16T11:27:40.994Z,68.62
2017-02-16T11:28:50.438Z,68.37
2017-02-16T11:29:59.460Z,68.24
2017-02-16T11:31:08.910Z,68.37
2017-02-16T11:32:17.930Z,69.01
2017-02-16T11:33:26.957Z,68.33
2017-02-16T11:34:35.998Z,68.37
2017-02-16T11:35:45.010Z,68.43
2017-02-16T11:36:54.048Z,68.75
2017-02-16T11:38:03.075Z,68.37
2017-02-16T11:39:12.515Z,68.37
2017-02-16T11:40:21.539Z,68.37
2017-02-16T11:41:30.582Z,68.27
2017-02-16T11:42:39.602Z,68.37
2017-02-16T11:43:48.642Z,68.56
2017-02-16T11:44:57.659Z,69.04
2017-02-16T11:46:06.692Z,68.56
2017-02-16T11:47:15.705Z,68.66
2017-02-16T11:48:24.764Z,68.27
2017-02-16T11:49:33.806Z,68.46
2017-02-16T11:50:42.841Z,68.37
2017-02-16T11:51:51.864Z,68.27
2017-02-16T11:53:00.878Z,67.99
2017-02-16T11:54:09.923Z,68.66
2017-02-16T11:55:19.389Z,68.27
2017-02-16T11:56:28.412Z,68.08
2017-02-16T11:57:37.893Z,68.46
2017-02-16T11:58:47.325Z,68.66
2017-02-16T11:59:56.349Z,68.18
2017-02-16T12:01:05.372Z,68.46
2017-02-16T12:02:14.429Z,68.27
2017-02-16T12:03:23.862Z,68.56
2017-02-16T12:04:32.880Z,68.18
2017-02-16T12:05:41.923Z,68.46
2017-02-16T12:06:50.963Z,68.66
2017-02-16T12:08:00.033Z,68.46
2017-02-16T12:09:09.476Z,68.21
2017-02-16T12:10:18.529Z,68.08
2017-02-16T12:11:27.552Z,68.37
2017-02-16T12:12:36.589Z,68.46
2017-02-16T12:13:45.618Z,68.5
2017-02-16T12:14:54.635Z,68.5
2017-02-16T12:16:03.654Z,68.59
2017-02-16T12:17:12.674Z,68.5
2017-02-16T12:18:21.684Z,68.21
2017-02-16T12:19:30.702Z,68.12
2017-02-16T12:20:39.743Z,68.4
2017-02-16T12:21:48.789Z,68.4
2017-02-16T12:22:57.833Z,68.3
2017-02-16T12:24:06.866Z,68.5
2017-02-16T12:25:15.892Z,68.21
2017-02-16T12:26:24.921Z,68.5
2017-02-16T12:27:33.961Z,68.5
2017-02-16T12:28:42.993Z,68.5
2017-02-16T12:29:52.036Z,68.5
2017-02-16T12:31:01.076Z,68.21
2017-02-16T12:32:10.163Z,68.4
2017-02-16T12:33:19.201Z,68.02
2017-02-16T12:34:28.220Z,68.4
2017-02-16T12:35:37.239Z,68.4
2017-02-16T12:36:46.264Z,68.4
2017-02-16T12:37:55.720Z,68.02
2017-02-16T12:39:04.750Z,68.12
2017-02-16T12:40:13.779Z,68.4
2017-02-16T12:41:22.778Z,68.4
2017-02-16T12:42:31.832Z,68.69
2017-02-16T12:43:41.266Z,68.88
2017-02-16T12:44:50.301Z,68.79
2017-02-16T12:45:59.334Z,68.69
2017-02-16T12:47:08.789Z,68.5
2017-02-16T12:48:17.815Z,68.59
2017-02-16T12:49:26.849Z,68.4
2017-02-16T12:50:35.872Z,68.88
2017-02-16T12:51:44.904Z,68.98
2017-02-16T12:52:53.926Z,68.79
2017-02-16T12:54:03.352Z,68.79
2017-02-16T12:55:12.355Z,69.07
2017-02-16T12:56:21.386Z,68.59
2017-02-16T12:57:30.424Z,69.17
2017-02-16T12:58:40.302Z,69.11
2017-02-16T12:59:49.316Z,68.82
2017-02-16T13:00:58.342Z,68.88
2017-02-16T13:02:07.780Z,68.69
2017-02-16T13:03:16.792Z,68.5
2017-02-16T13:04:26.208Z,68.88
2017-02-16T13:05:35.227Z,68.82
2017-02-16T13:06:44.654Z,68.4
2017-02-16T13:07:53.653Z,69.07
2017-02-16T13:09:02.653Z,68.88
2017-02-16T13:10:11.683Z,68.69
2017-02-16T13:11:20.700Z,68.69
2017-02-16T13:12:29.703Z,68.5
2017-02-16T13:13:38.717Z,69.11
2017-02-16T13:14:47.733Z,68.69
2017-02-16T13:15:56.765Z,69.01
2017-02-16T13:17:05.774Z,68.79
2017-02-16T13:18:14.777Z,68.15
2017-02-16T13:19:23.786Z,68.59
2017-02-16T13:20:32.791Z,68.44
2017-02-16T13:21:41.820Z,68.5
2017-02-16T13:22:50.822Z,68.63
2017-02-16T13:23:59.862Z,68.63
2017-02-16T13:25:08.869Z,68.15
2017-02-16T13:26:17.894Z,68.73
2017-02-16T13:27:26.943Z,68.44
2017-02-16T13:28:35.960Z,68.34
2017-02-16T13:29:44.992Z,68.53
2017-02-16T13:30:54.000Z,68.21
2017-02-16T13:32:03.030Z,68.53
2017-02-16T13:33:12.045Z,68.15
2017-02-16T13:34:21.092Z,68.24
2017-02-16T13:35:30.527Z,68.63
2017-02-16T13:36:39.540Z,68.24
2017-02-16T13:37:48.567Z,68.44
2017-02-16T13:38:57.571Z,68.53
2017-02-16T13:40:06.593Z,68.73
2017-02-16T13:41:15.615Z,68.53
2017-02-16T13:42:25.044Z,68.44
2017-02-16T13:43:34.078Z,68.53
2017-02-16T13:44:43.088Z,68.44
2017-02-16T13:45:52.136Z,68.34
2017-02-16T13:47:01.154Z,68.53
2017-02-16T13:48:10.165Z,68.63
2017-02-16T13:49:19.179Z,68.44
2017-02-16T13:50:28.213Z,68.53
2017-02-16T13:51:37.648Z,67.96
2017-02-16T13:52:46.692Z,68.44
2017-02-16T13:53:55.733Z,68.44
2017-02-16T13:55:04.743Z,68.53
2017-02-16T13:56:13.787Z,68.44
2017-02-16T13:57:22.813Z,68.91
2017-02-16T13:58:31.842Z,68.34
2017-02-16T13:59:40.874Z,68.44
2017-02-16T14:00:49.884Z,68.53
2017-02-16T14:01:58.905Z,68.44
2017-02-16T14:03:08.355Z,68.53
2017-02-16T14:04:17.385Z,68.34
2017-02-16T14:05:26.398Z,68.53
2017-02-16T14:06:35.462Z,68.63
2017-02-16T14:07:44.477Z,68.15
2017-02-16T14:08:53.498Z,68.08
2017-02-16T14:10:02.516Z,68.15
2017-02-16T14:11:11.535Z,68.34
2017-02-16T14:12:20.549Z,67.99
2017-02-16T14:13:29.552Z,68.28
2017-02-16T14:14:38.562Z,68.53
2017-02-16T14:15:47.616Z,68.28
2017-02-16T14:16:56.632Z,68.05
2017-02-16T14:18:06.048Z,67.76
2017-02-16T14:19:15.089Z,68.18
2017-02-16T14:20:24.100Z,67.86
2017-02-16T14:21:33.111Z,68.15
2017-02-16T14:22:42.126Z,68.08
2017-02-16T14:23:51.148Z,68.15
2017-02-16T14:25:00.171Z,68.08
2017-02-16T14:26:09.211Z,68.18
2017-02-16T14:27:26.501Z,67.9
2017-02-16T14:28:35.518Z,67.99
2017-02-16T14:29:44.549Z,67.99
2017-02-16T14:30:53.559Z,67.67
2017-02-16T14:32:03.044Z,67.7
2017-02-16T14:33:12.497Z,67.8
2017-02-16T14:34:21.516Z,67.8
2017-02-16T14:35:30.599Z,67.7
2017-02-16T14:36:40.025Z,67.7
2017-02-16T14:37:49.111Z,67.7
2017-02-16T14:38:58.126Z,67.57
2017-02-16T14:40:07.157Z,68.28
2017-02-16T14:41:16.605Z,68.08
2017-02-16T14:42:25.616Z,68.05
2017-02-16T14:43:34.628Z,68.95
2017-02-16T14:44:43.636Z,68.28
2017-02-16T14:45:52.660Z,68.66
2017-02-16T14:47:01.683Z,68.66
2017-02-16T14:48:11.086Z,68.76
2017-02-16T14:49:20.142Z,68.37
2017-02-16T14:50:29.326Z,68.47
2017-02-16T14:51:38.749Z,68.47
2017-02-16T14:52:47.816Z,68.18
2017-02-16T14:53:57.288Z,68.08
2017-02-16T14:55:06.287Z,68.47